James Cook — MLRM6 — position and weather

sailwx.info

Track history (hours):
 
Tides and Currents Weather Stations Pressure Air Temp Water Temp Dewpoint Dewpoint Depression Visibility Wind Speed Wind Dir Waves Ship Positions

Oceanographic research ship James Cook (UK)

Last reported at 2019-Sep-19 10:00 UTC. Time now 2019-Sep-20 10:39 UTC.
Position S 05°54' E 011°18'.

Length 89.2 m; beam 18.6 m; draft 5.7 m.

Type: Other ship. MMSI: 235010700.

Wind from 120 at 11 knots

Barometer 1015.5 mb
Air temperature 25.7 ° C
Visibility: greater than 10.8 NM
Dewpoint 22.3 ° C
Water temperature 24.3 ° C

Date/timePositionNaut miles runAvg speedWind from/ knotsBaromVisibWave heightAir tempDewpointWater temp
2019-Sep-19 10:00S 05°54' E 011°18'0 0.0 120 / 111015.510.8 25.722.324.3
2019-Sep-18 10:00S 05°54' E 011°18'   180 / 141015.0 5.4 25.021.624.3
2019-Sep-15 04:15S 06°47' E 012°04'310.4
2019-Sep-15 03:57S 06°50' E 012°06'410.2
2019-Sep-15 03:30S 06°54' E 012°08'510.5
2019-Sep-15 03:00S 06°59' E 012°11'510.5
2019-Sep-15 02:30S 07°03' E 012°14'510.6
2019-Sep-15 02:00S 07°08' E 012°16'510.8
2019-Sep-15 01:30S 07°12' E 012°19'510.7
2019-Sep-15 01:00S 07°17' E 012°22'510.8
2019-Sep-15 00:30S 07°21' E 012°25'510.9
2019-Sep-15 00:00S 07°26' E 012°28'4411.0
2019-Sep-14 20:01S 08°03' E 012°51'011.3
2019-Sep-14 20:00S 08°03' E 012°51'511.1
2019-Sep-14 19:30S 08°08' E 012°54'3611.4
2019-Sep-14 16:21S 08°38' E 013°13'8 1.3
2019-Sep-14 09:54S 08°46' E 013°16'17 8.8
2019-Sep-14 07:58S 08°36' E 013°02'  
2019-Sep-10 10:00S 06°42' E 005°24'112 4.7 180 / 101016.910.8 23.518.823.3
2019-Sep-09 10:00S 05°54' E 003°42'   190 / 151017.5 5.4 24.620.224.3
Track history (hours):
 
Tides and Currents Weather Stations Pressure Air Temp Water Temp Dewpoint Dewpoint Depression Visibility Wind Speed Wind Dir Waves Ship Positions

Oceanographic research ship James Cook (UK)

Last reported at 2019-Sep-19 10:00 UTC. Time now 2019-Sep-20 10:39 UTC.
Position S 05°54' E 011°18'.

Length 89.2 m; beam 18.6 m; draft 5.7 m.

Type: Other ship. MMSI: 235010700.

Wind from 120 at 11 knots

Barometer 1015.5 mb
Air temperature 25.7 ° C
Visibility: greater than 10.8 NM
Dewpoint 22.3 ° C
Water temperature 24.3 ° C

Date/timePositionNaut miles runAvg speedWind from/ knotsBaromVisibWave heightAir tempDewpointWater temp
2019-Sep-19 10:00S 05°54' E 011°18'0 0.0 120 / 111015.510.8 25.722.324.3
2019-Sep-18 10:00S 05°54' E 011°18'   180 / 141015.0 5.4 25.021.624.3
2019-Sep-15 04:15S 06°47' E 012°04'310.4
2019-Sep-15 03:57S 06°50' E 012°06'410.2
2019-Sep-15 03:30S 06°54' E 012°08'510.5
2019-Sep-15 03:00S 06°59' E 012°11'510.5
2019-Sep-15 02:30S 07°03' E 012°14'510.6
2019-Sep-15 02:00S 07°08' E 012°16'510.8
2019-Sep-15 01:30S 07°12' E 012°19'510.7
2019-Sep-15 01:00S 07°17' E 012°22'510.8
2019-Sep-15 00:30S 07°21' E 012°25'510.9
2019-Sep-15 00:00S 07°26' E 012°28'4411.0
2019-Sep-14 20:01S 08°03' E 012°51'011.3
2019-Sep-14 20:00S 08°03' E 012°51'511.1
2019-Sep-14 19:30S 08°08' E 012°54'3611.4
2019-Sep-14 16:21S 08°38' E 013°13'8 1.3
2019-Sep-14 09:54S 08°46' E 013°16'17 8.8
2019-Sep-14 07:58S 08°36' E 013°02'  
2019-Sep-10 10:00S 06°42' E 005°24'112 4.7 180 / 101016.910.8 23.518.823.3
2019-Sep-09 10:00S 05°54' E 003°42'   190 / 151017.5 5.4 24.620.224.3

Dump ship's entire track history